createdAt,value
2018-07-30T00:02:33.662Z,8.25
2018-07-30T00:07:37.697Z,8.50
2018-07-30T00:12:41.679Z,9.00
2018-07-30T00:17:45.424Z,8.25
2018-07-30T00:22:49.434Z,9.50
2018-07-30T00:27:53.529Z,9.60
2018-07-30T00:32:57.574Z,9.75
2018-07-30T00:38:01.441Z,9.00
2018-07-30T00:43:05.710Z,9.50
2018-07-30T00:48:09.889Z,10.00
2018-07-30T00:53:14.313Z,9.60
2018-07-30T00:58:18.603Z,9.00
2018-07-30T01:03:23.711Z,11.50
2018-07-30T01:08:27.474Z,10.00
2018-07-30T01:13:31.404Z,10.50
2018-07-30T01:18:35.265Z,9.80
2018-07-30T01:23:39.181Z,9.40
2018-07-30T01:28:43.562Z,9.75
2018-07-30T01:33:47.398Z,9.00
2018-07-30T01:38:51.815Z,9.00
2018-07-30T01:43:55.584Z,9.75
2018-07-30T01:48:59.404Z,9.00
2018-07-30T01:54:03.304Z,10.00
2018-07-30T01:59:07.291Z,9.00
2018-07-30T02:04:11.299Z,10.00
2018-07-30T02:09:15.178Z,11.00
2018-07-30T02:14:19.228Z,10.40
2018-07-30T02:19:23.021Z,9.75
2018-07-30T02:24:26.977Z,9.75
2018-07-30T02:29:30.837Z,10.00
2018-07-30T02:34:34.761Z,11.00
2018-07-30T02:39:38.589Z,9.50
2018-07-30T02:44:42.516Z,9.50
2018-07-30T02:49:48.512Z,11.00
2018-07-30T02:54:52.447Z,12.00
2018-07-30T02:59:56.301Z,9.60
2018-07-30T03:05:03.834Z,9.80
2018-07-30T03:10:08.351Z,10.80
2018-07-30T03:15:12.203Z,9.60
2018-07-30T03:20:17.240Z,10.00
2018-07-30T03:25:21.096Z,12.00
2018-07-30T03:30:24.938Z,11.60
2018-07-30T03:35:28.752Z,12.00
2018-07-30T03:40:32.498Z,11.75
2018-07-30T03:45:36.248Z,12.00
2018-07-30T03:50:40.000Z,13.00
2018-07-30T03:55:43.761Z,12.80
2018-07-30T04:00:47.453Z,10.20
2018-07-30T04:05:51.473Z,11.00
2018-07-30T04:10:56.968Z,13.75
2018-07-30T04:16:00.984Z,12.00
2018-07-30T04:21:04.881Z,12.40
2018-07-30T04:26:08.730Z,13.00
2018-07-30T04:31:12.660Z,11.60
2018-07-30T04:36:16.472Z,14.00
2018-07-30T04:41:20.299Z,13.50
2018-07-30T04:46:24.537Z,14.00
2018-07-30T04:51:28.509Z,15.00
2018-07-30T04:56:32.368Z,12.25
2018-07-30T05:01:36.097Z,14.00
2018-07-30T05:06:39.794Z,12.40
2018-07-30T05:11:43.485Z,13.50
2018-07-30T05:16:48.210Z,13.00
2018-07-30T05:21:51.945Z,11.00
2018-07-30T05:26:55.600Z,12.75
2018-07-30T05:31:59.307Z,11.75
2018-07-30T05:37:03.050Z,11.40
2018-07-30T05:42:06.787Z,14.20
2018-07-30T05:47:10.423Z,14.00
2018-07-30T05:52:14.055Z,11.25
2018-07-30T05:57:17.705Z,12.80
2018-07-30T06:02:21.328Z,13.25
2018-07-30T06:07:24.943Z,12.60
2018-07-30T06:12:28.669Z,11.60
2018-07-30T06:17:32.289Z,11.50
2018-07-30T06:22:36.114Z,11.00
2018-07-30T06:27:41.829Z,11.60
2018-07-30T06:32:45.503Z,12.40
2018-07-30T06:37:49.182Z,11.00
2018-07-30T06:42:52.880Z,13.00
2018-07-30T06:47:57.356Z,11.25
2018-07-30T06:53:01.103Z,11.75
2018-07-30T06:58:05.049Z,13.00
2018-07-30T07:03:08.991Z,12.00
2018-07-30T07:08:12.884Z,11.00
2018-07-30T07:13:17.306Z,10.50
2018-07-30T07:18:21.595Z,9.60
2018-07-30T07:23:29.391Z,12.00
2018-07-30T07:28:33.186Z,10.00
2018-07-30T07:33:36.894Z,11.80
2018-07-30T07:38:42.275Z,12.25
2018-07-30T07:43:45.952Z,11.40
2018-07-30T07:48:49.805Z,12.00
2018-07-30T07:53:53.525Z,10.25
2018-07-30T07:58:57.506Z,10.00
2018-07-30T08:04:01.266Z,12.75
2018-07-30T08:09:07.201Z,11.00
2018-07-30T08:14:10.874Z,12.00
2018-07-30T08:19:14.880Z,10.50
2018-07-30T08:24:19.679Z,12.00
2018-07-30T08:29:24.917Z,11.00
2018-07-30T08:34:28.664Z,12.00
2018-07-30T08:39:32.573Z,11.00
2018-07-30T08:44:36.366Z,10.75
2018-07-30T08:49:40.241Z,11.40
2018-07-30T08:54:44.308Z,11.60
2018-07-30T08:59:48.101Z,11.40
2018-07-30T09:04:51.822Z,10.75
2018-07-30T09:09:55.577Z,12.00
2018-07-30T09:14:59.590Z,13.00
2018-07-30T09:20:06.198Z,11.80
2018-07-30T09:25:09.914Z,12.40
2018-07-30T09:30:13.558Z,11.40
2018-07-30T09:35:17.198Z,13.50
2018-07-30T09:40:20.822Z,11.40
2018-07-30T09:45:24.648Z,12.00
2018-07-30T09:50:28.540Z,10.75
2018-07-30T09:55:32.293Z,11.00
2018-07-30T10:01:16.158Z,11.00
2018-07-30T10:06:19.909Z,9.40
2018-07-30T10:11:23.495Z,11.75
2018-07-30T10:16:27.238Z,12.00
2018-07-30T10:21:30.923Z,10.40
2018-07-30T10:26:35.391Z,9.60
2018-07-30T10:31:39.080Z,11.00
2018-07-30T10:36:42.715Z,11.25
2018-07-30T10:41:46.364Z,9.75
2018-07-30T10:46:50.183Z,12.00
2018-07-30T10:51:53.875Z,10.00
2018-07-30T10:56:57.612Z,12.00
2018-07-30T11:02:01.520Z,12.00
2018-07-30T11:07:05.212Z,13.80
2018-07-30T11:12:08.899Z,12.60
2018-07-30T11:17:12.667Z,12.50
2018-07-30T11:22:16.404Z,13.75
2018-07-30T11:27:20.055Z,12.00
2018-07-30T11:32:23.827Z,12.40
2018-07-30T11:37:28.311Z,14.00
2018-07-30T11:42:31.986Z,12.75
2018-07-30T11:47:35.717Z,13.00
2018-07-30T11:52:39.423Z,13.00
2018-07-30T11:57:43.128Z,12.75
2018-07-30T12:02:46.772Z,12.40
2018-07-30T12:07:50.500Z,11.75
2018-07-30T12:12:54.697Z,12.75
2018-07-30T12:17:58.411Z,13.25
2018-07-30T12:23:02.118Z,10.25
2018-07-30T12:28:06.065Z,11.00
2018-07-30T12:33:10.068Z,11.80
2018-07-30T12:38:13.872Z,12.40
2018-07-30T12:43:17.649Z,13.75
2018-07-30T12:48:21.389Z,14.25
2018-07-30T12:53:26.109Z,14.00
2018-07-30T12:58:29.802Z,13.20
2018-07-30T13:03:33.542Z,12.25
2018-07-30T13:08:37.203Z,13.00
2018-07-30T13:13:41.015Z,13.40
2018-07-30T13:18:44.747Z,14.75
2018-07-30T13:23:48.888Z,14.00
2018-07-30T13:28:52.547Z,16.25
2018-07-30T13:33:56.220Z,14.50
2018-07-30T13:39:00.046Z,14.25
2018-07-30T13:44:04.106Z,13.00
2018-07-30T13:49:08.149Z,16.00
2018-07-30T13:54:11.952Z,16.00
2018-07-30T13:59:16.930Z,13.00
2018-07-30T14:04:21.268Z,15.00
2018-07-30T14:09:24.952Z,14.75
2018-07-30T14:14:28.795Z,14.80
2018-07-30T14:19:33.059Z,13.25
2018-07-30T14:24:36.885Z,14.00
2018-07-30T14:29:40.646Z,14.50
2018-07-30T14:34:44.321Z,12.50
2018-07-30T14:39:48.149Z,13.50
2018-07-30T14:44:51.842Z,12.00
2018-07-30T14:49:55.578Z,12.00
2018-07-30T14:55:04.077Z,11.00
2018-07-30T15:00:09.378Z,11.80
2018-07-30T15:05:13.243Z,11.00
2018-07-30T15:10:17.050Z,10.00
2018-07-30T15:15:20.709Z,10.60
2018-07-30T15:20:24.594Z,10.25
2018-07-30T15:25:28.527Z,10.00
2018-07-30T15:30:32.350Z,9.75
2018-07-30T15:35:35.998Z,9.00
2018-07-30T15:40:40.009Z,9.00
2018-07-30T15:45:43.977Z,9.60
2018-07-30T15:50:47.861Z,8.00
2018-07-30T15:55:52.791Z,8.00
2018-07-30T16:00:56.595Z,8.75
2018-07-30T16:06:00.500Z,8.00
2018-07-30T16:11:04.273Z,8.75
2018-07-30T16:16:08.856Z,9.00
2018-07-30T16:21:12.645Z,9.00
2018-07-30T16:26:16.464Z,11.75
2018-07-30T16:31:20.372Z,11.25
2018-07-30T16:36:24.210Z,11.40
2018-07-30T16:41:27.978Z,13.75
2018-07-30T16:46:31.825Z,13.50
2018-07-30T16:51:35.760Z,12.50
2018-07-30T16:56:39.816Z,12.75
2018-07-30T17:01:43.736Z,12.00
2018-07-30T17:06:47.635Z,11.25
2018-07-30T17:11:51.503Z,11.00
2018-07-30T17:16:55.346Z,13.00
2018-07-30T17:21:59.109Z,10.50
2018-07-30T17:27:02.830Z,11.60
2018-07-30T17:32:06.499Z,11.40
2018-07-30T17:37:10.410Z,9.50
2018-07-30T17:42:14.233Z,10.75
2018-07-30T17:47:18.170Z,12.60
2018-07-30T17:52:21.923Z,10.00
2018-07-30T17:57:26.013Z,11.00
2018-07-30T18:02:30.102Z,11.80
2018-07-30T18:07:33.860Z,10.50
2018-07-30T18:12:37.993Z,12.00
2018-07-30T18:17:42.027Z,11.00
2018-07-30T18:22:45.880Z,10.40
2018-07-30T18:27:50.197Z,12.00
2018-07-30T18:32:54.277Z,11.00
2018-07-30T18:37:58.179Z,11.25
2018-07-30T18:43:01.883Z,11.00
2018-07-30T18:48:05.922Z,12.20
2018-07-30T18:53:09.629Z,10.80
2018-07-30T18:58:14.001Z,11.00
2018-07-30T19:03:17.906Z,13.00
2018-07-30T19:08:21.625Z,12.75
2018-07-30T19:13:25.364Z,13.00
2018-07-30T19:18:29.066Z,12.25
2018-07-30T19:23:32.790Z,11.80
2018-07-30T19:28:36.446Z,12.00
2018-07-30T19:33:40.169Z,12.50
2018-07-30T19:38:44.009Z,13.60
2018-07-30T19:43:47.681Z,12.75
2018-07-30T19:48:51.464Z,13.00
2018-07-30T19:53:56.040Z,13.00
2018-07-30T19:58:59.921Z,16.00
2018-07-30T20:04:03.707Z,16.00
2018-07-30T20:09:10.261Z,13.25
2018-07-30T20:14:14.146Z,15.20
2018-07-30T20:19:17.822Z,13.50
2018-07-30T20:24:21.711Z,13.75
2018-07-30T20:29:25.823Z,15.00
2018-07-30T20:34:29.745Z,14.25
2018-07-30T20:39:33.634Z,16.00
2018-07-30T20:44:37.581Z,15.50
2018-07-30T20:49:41.490Z,16.80
2018-07-30T20:54:45.467Z,16.00
2018-07-30T20:59:49.418Z,16.00
2018-07-30T21:04:53.600Z,15.80
2018-07-30T21:09:57.614Z,15.40
2018-07-30T21:15:02.710Z,15.25
2018-07-30T21:20:06.746Z,16.25
2018-07-30T21:25:10.532Z,16.60
2018-07-30T21:30:14.268Z,14.75
2018-07-30T21:35:17.906Z,14.00
2018-07-30T21:40:21.683Z,16.20
2018-07-30T21:45:25.562Z,16.00
2018-07-30T21:50:29.222Z,16.50
2018-07-30T21:55:32.954Z,15.00
2018-07-30T22:00:36.635Z,16.20
2018-07-30T22:05:40.429Z,17.00
2018-07-30T22:10:44.122Z,16.25
2018-07-30T22:15:48.037Z,16.80
2018-07-30T22:20:51.730Z,16.20
2018-07-30T22:25:55.526Z,16.25
2018-07-30T22:30:59.226Z,17.00
2018-07-30T22:36:02.925Z,19.00
2018-07-30T22:41:06.671Z,15.25
2018-07-30T22:46:10.530Z,14.00
2018-07-30T22:51:14.434Z,14.75
2018-07-30T22:56:18.216Z,15.00
2018-07-30T23:01:21.882Z,15.80
2018-07-30T23:06:25.610Z,16.50
2018-07-30T23:11:29.346Z,16.50
2018-07-30T23:16:33.061Z,17.40
2018-07-30T23:21:36.803Z,17.80
2018-07-30T23:26:41.772Z,17.00
2018-07-30T23:31:45.456Z,16.50
2018-07-30T23:36:49.120Z,17.00
2018-07-30T23:41:52.797Z,18.00
2018-07-30T23:46:56.430Z,17.25
2018-07-30T23:52:00.105Z,15.75
2018-07-30T23:57:03.719Z,16.75
